Time;durP1;ratioP1;P1;durP2;ratioP2;P2;SDS_P1;SDS_P2;PMS_P1;PMS_P2;Temp;Humidity;BMP_temperature;BMP_pressure;BME280_temperature;BME280_humidity;BME280_pressure;Samples;Min_cycle;Max_cycle;Signal;HPM_P1;HPM_P2
2023/12/28 00:02:25;;;;;;;5.22;1.90;;;12.90;99.90;;;;;;4979823;28;20038;-82
2023/12/28 00:04:50;;;;;;;7.18;2.10;;;13.40;99.90;;;;;;4978617;28;20066;-82
2023/12/28 00:07:16;;;;;;;4.57;1.80;;;13.10;99.90;;;;;;4980313;28;20536;-82
2023/12/28 00:09:41;;;;;;;5.65;2.00;;;13.70;99.90;;;;;;4977102;28;20399;-82
2023/12/28 00:12:07;;;;;;;6.63;1.80;;;13.70;99.90;;;;;;4976853;28;20506;-82
2023/12/28 00:14:33;;;;;;;4.30;1.65;;;12.60;99.90;;;;;;4964707;28;20035;-82
2023/12/28 00:16:58;;;;;;;5.40;1.80;;;13.40;99.90;;;;;;4976447;28;20058;-81
2023/12/28 00:19:24;;;;;;;4.53;1.80;;;13.10;99.90;;;;;;4980702;28;20038;-82
2023/12/28 00:21:50;;;;;;;5.03;1.85;;;13.20;99.90;;;;;;4963278;28;20039;-81
2023/12/28 00:24:16;;;;;;;6.10;1.48;;;13.90;99.90;;;;;;4974016;28;20097;-82
2023/12/28 00:26:42;;;;;;;8.60;2.10;;;13.00;99.90;;;;;;4976848;28;20114;-82
2023/12/28 00:29:07;;;;;;;5.57;1.73;;;13.00;99.90;;;;;;4978683;28;20558;-82
2023/12/28 00:31:33;;;;;;;6.95;2.70;;;12.90;99.90;;;;;;4979124;28;20039;-82
2023/12/28 00:33:58;;;;;;;6.22;2.30;;;13.10;99.90;;;;;;4974896;28;20493;-81
2023/12/28 00:36:24;;;;;;;5.70;2.03;;;13.60;99.90;;;;;;4957796;28;20045;-82
2023/12/28 00:38:50;;;;;;;6.68;1.95;;;13.10;99.90;;;;;;4977391;28;20041;-82
2023/12/28 00:41:15;;;;;;;5.82;2.03;;;13.20;99.90;;;;;;4960565;28;20035;-82
2023/12/28 00:43:41;;;;;;;5.60;1.88;;;13.40;99.90;;;;;;4974519;28;20058;-82
2023/12/28 00:46:06;;;;;;;8.63;1.98;;;14.00;99.90;;;;;;4977453;28;20045;-82
2023/12/28 00:48:32;;;;;;;7.28;2.17;;;13.80;99.90;;;;;;4974587;28;20089;-82
2023/12/28 00:51:00;;;;;;;7.70;2.00;;;13.60;99.90;;;;;;4978032;28;20035;-82
2023/12/28 00:53:27;;;;;;;6.32;2.05;;;;;;;;;;4972105;28;20049;-82
2023/12/28 00:55:52;;;;;;;6.63;2.22;;;12.80;99.90;;;;;;4955782;28;20511;-82
2023/12/28 00:58:18;;;;;;;5.15;1.98;;;13.80;99.90;;;;;;4959830;28;20049;-82
2023/12/28 01:00:44;;;;;;;7.35;2.00;;;13.10;99.90;;;;;;4976054;28;20042;-82
2023/12/28 01:03:09;;;;;;;5.68;2.33;;;13.20;99.90;;;;;;4989316;28;20410;-82
2023/12/28 01:05:35;;;;;;;7.45;2.00;;;13.30;99.90;;;;;;4973524;28;20486;-82
2023/12/28 01:08:01;;;;;;;6.18;1.90;;;12.90;99.90;;;;;;4975502;28;20060;-82
2023/12/28 01:10:27;;;;;;;6.25;2.00;;;13.40;99.90;;;;;;4972651;28;20042;-82
2023/12/28 01:12:52;;;;;;;11.35;3.67;;;13.30;99.90;;;;;;4974625;28;20046;-82
2023/12/28 01:15:20;;;;;;;9.32;2.42;;;13.70;99.90;;;;;;4962243;28;20517;-82
2023/12/28 01:17:46;;;;;;;6.20;1.98;;;13.00;99.90;;;;;;4971303;28;20038;-82
2023/12/28 01:20:12;;;;;;;6.20;2.28;;;13.20;99.90;;;;;;4957520;28;20525;-82
2023/12/28 01:22:37;;;;;;;8.63;2.10;;;13.70;99.90;;;;;;4973508;28;20482;-82
2023/12/28 01:25:03;;;;;;;7.32;2.22;;;13.20;99.90;;;;;;4965358;28;20581;-81
2023/12/28 01:27:29;;;;;;;8.63;2.78;;;13.10;99.90;;;;;;4972004;28;20035;-82
2023/12/28 01:29:55;;;;;;;6.00;2.20;;;13.60;99.90;;;;;;4973645;28;20130;-81
2023/12/28 01:32:21;;;;;;;6.45;2.03;;;13.40;99.90;;;;;;4968844;28;20525;-81
2023/12/28 01:34:46;;;;;;;5.90;2.05;;;13.80;99.90;;;;;;4958695;28;20047;-82
2023/12/28 01:37:12;;;;;;;8.60;2.33;;;13.80;99.90;;;;;;4975164;28;20038;-82
2023/12/28 01:39:38;;;;;;;7.63;2.15;;;13.70;99.90;;;;;;4972040;28;20051;-82
2023/12/28 01:42:04;;;;;;;6.75;1.90;;;13.60;99.90;;;;;;4959430;28;20383;-82
2023/12/28 01:44:29;;;;;;;9.15;1.95;;;13.80;99.90;;;;;;4974739;28;20045;-82
2023/12/28 01:46:55;;;;;;;6.75;2.08;;;13.00;99.90;;;;;;4954876;28;20049;-82
2023/12/28 01:49:21;;;;;;;7.68;2.17;;;13.00;99.90;;;;;;4974266;28;20039;-82
2023/12/28 01:51:48;;;;;;;7.10;2.60;;;13.40;99.90;;;;;;4975033;28;20038;-82
2023/12/28 01:54:14;;;;;;;8.13;2.00;;;13.90;99.90;;;;;;4974018;28;20117;-81
2023/12/28 01:56:39;;;;;;;6.90;2.08;;;13.60;99.90;;;;;;4989082;28;20094;-82
2023/12/28 01:59:05;;;;;;;5.80;1.95;;;13.50;99.90;;;;;;4972031;28;20113;-82
2023/12/28 02:01:31;;;;;;;9.13;2.13;;;13.20;99.90;;;;;;4973745;28;20032;-82
2023/12/28 02:03:57;;;;;;;6.90;2.10;;;13.20;99.90;;;;;;4954987;28;20125;-82
2023/12/28 02:06:24;;;;;;;6.13;2.22;;;13.60;99.90;;;;;;4954892;28;20039;-82
2023/12/28 02:08:50;;;;;;;8.15;2.55;;;12.90;99.90;;;;;;4974717;28;20038;-82
2023/12/28 02:11:16;;;;;;;6.35;2.30;;;13.80;99.90;;;;;;4973845;28;20030;-82
2023/12/28 02:13:41;;;;;;;8.52;2.25;;;13.30;99.90;;;;;;4957633;28;20075;-82
2023/12/28 02:16:23;;;;;;;7.22;2.13;;;13.60;99.90;;;;;;4969446;28;20039;-82
2023/12/28 02:18:51;;;;;;;7.70;2.10;;;14.80;99.90;;;;;;4972125;28;20506;-82
2023/12/28 02:21:20;;;;;;;8.95;2.25;;;13.90;99.90;;;;;;4972007;28;20039;-82
2023/12/28 02:23:49;;;;;;;8.38;3.17;;;13.90;99.90;;;;;;4973279;28;20043;-82
2023/12/28 02:26:18;;;;;;;10.00;2.40;;;14.00;99.90;;;;;;4969164;28;20130;-82
2023/12/28 02:28:45;;;;;;;7.15;2.05;;;13.70;99.90;;;;;;4975135;28;20035;-82
2023/12/28 02:31:28;;;;;;;7.35;2.53;;;13.70;99.90;;;;;;4977580;28;20101;-82
2023/12/28 02:34:06;;;;;;;7.40;2.72;;;13.80;99.90;;;;;;4972042;28;20034;-82
2023/12/28 02:36:35;;;;;;;7.07;2.20;;;13.40;99.90;;;;;;4970697;28;20499;-82
2023/12/28 02:39:03;;;;;;;10.00;3.13;;;14.30;99.90;;;;;;4952401;28;20058;-82
2023/12/28 02:41:30;;;;;;;8.82;2.17;;;13.60;99.90;;;;;;4972188;28;20038;-81
2023/12/28 02:43:55;;;;;;;8.25;2.70;;;13.70;99.90;;;;;;4957163;28;20090;-82
2023/12/28 02:46:21;;;;;;;7.95;2.10;;;13.50;99.90;;;;;;4972540;28;20074;-82
2023/12/28 02:48:47;;;;;;;9.73;2.85;;;13.80;99.90;;;;;;4973193;28;20061;-82
2023/12/28 02:51:12;;;;;;;10.63;2.47;;;13.70;99.90;;;;;;4972441;28;20170;-82
2023/12/28 02:53:38;;;;;;;9.00;2.15;;;13.50;99.90;;;;;;4972848;28;20043;-82
2023/12/28 02:56:04;;;;;;;8.30;2.45;;;13.70;99.90;;;;;;4969575;28;20187;-82
2023/12/28 02:58:30;;;;;;;6.43;1.95;;;13.80;99.90;;;;;;4972545;28;20126;-82
2023/12/28 03:00:55;;;;;;;6.40;1.80;;;13.50;99.90;;;;;;4977754;28;20122;-82
2023/12/28 03:03:21;;;;;;;8.45;2.30;;;13.70;99.90;;;;;;4981988;28;20045;-82
2023/12/28 03:05:46;;;;;;;6.80;2.17;;;13.70;99.90;;;;;;4971980;28;20039;-82
2023/12/28 03:08:12;;;;;;;10.20;2.58;;;13.80;99.90;;;;;;4975537;28;20394;-82
2023/12/28 03:10:38;;;;;;;8.10;2.22;;;13.00;99.90;;;;;;4974922;28;20089;-82
2023/12/28 03:13:03;;;;;;;8.23;2.33;;;13.00;99.90;;;;;;4976462;28;20050;-82
2023/12/28 03:15:29;;;;;;;7.50;2.50;;;13.30;99.90;;;;;;4975670;28;20057;-82
2023/12/28 03:17:54;;;;;;;9.93;2.33;;;13.70;99.90;;;;;;4975900;28;20042;-82
2023/12/28 03:20:20;;;;;;;7.65;2.40;;;13.50;99.90;;;;;;4976985;28;20039;-83
2023/12/28 03:22:46;;;;;;;9.25;2.20;;;13.10;99.90;;;;;;4978674;28;20089;-82
2023/12/28 03:25:11;;;;;;;10.35;2.97;;;13.60;99.90;;;;;;4980802;28;20053;-82
2023/12/28 03:27:37;;;;;;;7.20;2.38;;;13.50;99.90;;;;;;4978287;28;20045;-82
2023/12/28 03:30:03;;;;;;;7.50;2.25;;;13.10;99.90;;;;;;4978317;28;20510;-82
2023/12/28 03:32:28;;;;;;;8.07;2.40;;;13.30;99.90;;;;;;4976776;28;20047;-82
2023/12/28 03:34:54;;;;;;;9.07;2.22;;;13.70;99.90;;;;;;4962049;28;20042;-82
2023/12/28 03:37:20;;;;;;;7.07;2.03;;;13.80;99.90;;;;;;4977277;28;20050;-82
2023/12/28 03:39:45;;;;;;;7.28;2.25;;;13.70;99.90;;;;;;4978243;28;20039;-82
2023/12/28 03:42:11;;;;;;;8.65;2.17;;;13.20;99.90;;;;;;4978063;28;20506;-82
2023/12/28 03:44:36;;;;;;;9.35;2.60;;;13.90;99.90;;;;;;4961043;28;20051;-82
2023/12/28 03:47:02;;;;;;;7.03;2.17;;;13.20;99.90;;;;;;4979468;28;20406;-83
2023/12/28 03:49:28;;;;;;;10.85;2.67;;;13.40;99.90;;;;;;4977178;28;20042;-83
2023/12/28 03:51:53;;;;;;;7.50;1.85;;;13.40;99.90;;;;;;4976490;28;20053;-82
2023/12/28 03:54:19;;;;;;;7.72;2.33;;;13.70;99.90;;;;;;4974410;28;20052;-82
2023/12/28 03:56:48;;;;;;;7.55;1.95;;;13.80;99.90;;;;;;4978517;28;20035;-82
2023/12/28 03:59:16;;;;;;;10.00;2.55;;;13.40;99.90;;;;;;4962603;28;20118;-82
2023/12/28 04:01:42;;;;;;;13.32;3.78;;;13.90;99.90;;;;;;4975586;28;20081;-82
2023/12/28 04:04:08;;;;;;;8.75;2.15;;;14.10;99.90;;;;;;4961003;28;20043;-82
2023/12/28 04:06:34;;;;;;;7.10;2.25;;;14.50;99.90;;;;;;4978633;28;20086;-82
2023/12/28 04:09:00;;;;;;;6.53;1.90;;;13.70;99.90;;;;;;4962416;28;20034;-82
2023/12/28 04:11:25;;;;;;;9.50;2.25;;;13.90;99.90;;;;;;4979486;28;20038;-82
2023/12/28 04:13:51;;;;;;;9.02;2.20;;;13.70;99.90;;;;;;4978746;28;20065;-82
2023/12/28 04:16:17;;;;;;;6.45;2.45;;;14.20;99.90;;;;;;4982775;28;20450;-81
2023/12/28 04:18:43;;;;;;;11.30;2.10;;;13.30;99.90;;;;;;4980387;28;20030;-81
2023/12/28 04:21:12;;;;;;;10.77;2.25;;;13.30;99.90;;;;;;4980884;28;20053;-82
2023/12/28 04:23:39;;;;;;;8.73;2.15;;;14.40;99.90;;;;;;4979487;28;20074;-82
2023/12/28 04:26:05;;;;;;;9.70;2.40;;;13.70;99.90;;;;;;4980224;28;20053;-82
2023/12/28 04:28:31;;;;;;;7.40;2.08;;;13.60;99.90;;;;;;4979642;28;20070;-82
2023/12/28 04:30:57;;;;;;;10.50;2.20;;;13.90;99.90;;;;;;4977840;28;20039;-82
2023/12/28 04:33:22;;;;;;;6.93;2.20;;;13.70;99.90;;;;;;4977198;28;20051;-82
2023/12/28 04:35:48;;;;;;;8.75;1.92;;;13.70;99.90;;;;;;4979655;28;20046;-82
2023/12/28 04:38:14;;;;;;;7.55;1.80;;;14.00;99.90;;;;;;4979341;28;20388;-82
2023/12/28 04:40:39;;;;;;;10.60;2.40;;;13.90;99.90;;;;;;4976521;28;20517;-81
2023/12/28 04:43:05;;;;;;;10.73;2.50;;;14.40;99.90;;;;;;4959702;28;20043;-82
2023/12/28 04:45:30;;;;;;;10.15;2.83;;;14.70;99.90;;;;;;4975979;28;20093;-82
2023/12/28 04:47:56;;;;;;;10.75;2.42;;;13.50;99.90;;;;;;4976627;28;20410;-81
2023/12/28 04:50:22;;;;;;;9.23;2.45;;;14.10;99.90;;;;;;4959387;28;20054;-82
2023/12/28 04:52:47;;;;;;;7.50;2.40;;;13.80;99.90;;;;;;4973280;28;20049;-82
2023/12/28 04:55:13;;;;;;;8.55;1.90;;;13.50;99.90;;;;;;4978132;28;20050;-82
2023/12/28 04:57:41;;;;;;;8.27;2.40;;;14.30;99.90;;;;;;4977402;28;20034;-82
2023/12/28 05:00:08;;;;;;;5.47;1.73;;;14.10;99.90;;;;;;4962934;28;20047;-82
2023/12/28 05:02:34;;;;;;;8.52;2.13;;;14.10;99.90;;;;;;4960844;28;20046;-82
2023/12/28 05:04:59;;;;;;;8.40;2.35;;;13.90;99.90;;;;;;4976205;28;20566;-81
2023/12/28 05:07:25;;;;;;;8.00;2.08;;;13.80;99.90;;;;;;4962088;28;20411;-81
2023/12/28 05:09:51;;;;;;;9.07;2.20;;;13.80;99.90;;;;;;4975143;28;20776;-82
2023/12/28 05:12:17;;;;;;;8.52;2.30;;;13.60;99.90;;;;;;4959366;28;20043;-82
2023/12/28 05:14:42;;;;;;;7.55;2.30;;;14.20;99.90;;;;;;4977736;28;20055;-82
2023/12/28 05:17:08;;;;;;;8.95;2.97;;;14.40;99.90;;;;;;4975405;28;20062;-82
2023/12/28 05:19:34;;;;;;;8.95;2.70;;;14.00;99.90;;;;;;4991277;28;20469;-81
2023/12/28 05:22:03;;;;;;;8.73;2.38;;;14.20;99.90;;;;;;4974762;28;20117;-81
2023/12/28 05:24:29;;;;;;;8.52;1.88;;;14.30;99.90;;;;;;4975226;28;20043;-82
2023/12/28 05:26:55;;;;;;;7.40;2.33;;;14.20;99.90;;;;;;4976519;28;20049;-81
2023/12/28 05:29:20;;;;;;;8.00;2.15;;;14.60;99.90;;;;;;4960841;28;20081;-82
2023/12/28 05:31:46;;;;;;;8.40;2.67;;;14.30;99.90;;;;;;4976316;28;20039;-82
2023/12/28 05:34:11;;;;;;;7.32;2.10;;;14.00;99.90;;;;;;4975709;28;20101;-82
2023/12/28 05:36:37;;;;;;;9.85;2.20;;;13.80;99.90;;;;;;4957416;28;20568;-82
2023/12/28 05:39:04;;;;;;;8.20;2.50;;;14.20;99.90;;;;;;4958093;28;20034;-82
2023/12/28 05:41:29;;;;;;;8.77;2.67;;;13.60;99.90;;;;;;4957454;28;20030;-82
2023/12/28 05:43:55;;;;;;;8.82;2.00;;;13.90;99.90;;;;;;4978077;28;20085;-81
2023/12/28 05:46:20;;;;;;;9.32;2.15;;;14.00;99.90;;;;;;4957025;28;20070;-81
2023/12/28 05:48:46;;;;;;;10.13;2.30;;;13.70;99.90;;;;;;4975723;28;20046;-81
2023/12/28 05:51:12;;;;;;;10.50;2.45;;;14.50;99.90;;;;;;4956908;28;20053;-82
2023/12/28 05:53:37;;;;;;;8.95;2.17;;;14.30;99.90;;;;;;4972737;28;20046;-81
2023/12/28 05:56:03;;;;;;;7.20;2.03;;;14.80;99.90;;;;;;4973857;28;20061;-81
2023/12/28 05:58:29;;;;;;;10.07;2.33;;;14.20;99.90;;;;;;4957409;28;20178;-81
2023/12/28 06:00:55;;;;;;;12.23;2.65;;;14.40;99.90;;;;;;4956589;28;20117;-81
2023/12/28 06:03:21;;;;;;;11.57;2.95;;;14.20;99.90;;;;;;4971625;28;20045;-82
2023/12/28 06:05:46;;;;;;;9.55;2.78;;;13.70;99.90;;;;;;4955111;28;20039;-81
2023/12/28 06:08:13;;;;;;;7.78;2.13;;;14.30;99.90;;;;;;4974721;28;20047;-81
2023/12/28 06:10:38;;;;;;;10.25;2.55;;;14.30;99.90;;;;;;4972321;28;20047;-81
2023/12/28 06:13:04;;;;;;;11.70;3.30;;;14.50;99.90;;;;;;4976476;28;20059;-81
2023/12/28 06:15:30;;;;;;;10.32;3.22;;;14.00;99.90;;;;;;4957288;28;20039;-82
2023/12/28 06:17:55;;;;;;;10.57;2.80;;;14.30;99.90;;;;;;4970595;28;20031;-81
2023/12/28 06:20:21;;;;;;;8.32;2.13;;;14.30;99.90;;;;;;4975684;28;20679;-82
2023/12/28 06:22:48;;;;;;;10.55;2.50;;;14.30;99.90;;;;;;4954183;28;20065;-81
2023/12/28 06:25:17;;;;;;;11.30;2.80;;;14.30;99.90;;;;;;4971307;28;20478;-81
2023/12/28 06:27:43;;;;;;;8.02;2.60;;;14.00;99.90;;;;;;4954684;28;20038;-81
2023/12/28 06:30:09;;;;;;;12.20;2.50;;;13.90;99.90;;;;;;4965412;28;20058;-81
2023/12/28 06:32:34;;;;;;;11.52;2.83;;;14.30;99.90;;;;;;4971795;28;20367;-81
2023/12/28 06:35:00;;;;;;;10.52;2.47;;;14.20;99.90;;;;;;4972298;28;20042;-81
2023/12/28 06:37:25;;;;;;;7.88;2.35;;;14.40;99.90;;;;;;4973204;28;20477;-80
2023/12/28 06:39:51;;;;;;;9.02;2.70;;;13.90;99.90;;;;;;4968684;28;20039;-81
2023/12/28 06:42:17;;;;;;;9.00;2.60;;;14.50;99.90;;;;;;4966599;28;20036;-80
2023/12/28 06:44:42;;;;;;;12.00;3.65;;;14.40;99.90;;;;;;4952575;28;20417;-81
2023/12/28 06:47:08;;;;;;;10.45;2.45;;;14.00;99.90;;;;;;4973255;28;20485;-80
2023/12/28 06:49:33;;;;;;;8.27;2.80;;;14.40;99.90;;;;;;4972135;28;20035;-81
2023/12/28 06:51:59;;;;;;;10.85;1.95;;;13.70;99.90;;;;;;4969491;28;20408;-81
2023/12/28 06:54:25;;;;;;;11.68;3.15;;;14.80;99.90;;;;;;4972626;28;20154;-80
2023/12/28 06:56:51;;;;;;;8.60;2.67;;;14.40;99.90;;;;;;4969153;28;20031;-80
2023/12/28 06:59:17;;;;;;;12.00;2.75;;;14.00;99.90;;;;;;4965308;28;20156;-80
2023/12/28 07:01:44;;;;;;;10.27;3.33;;;14.00;99.90;;;;;;4970463;28;20113;-81
2023/12/28 07:04:09;;;;;;;9.20;2.95;;;14.10;99.90;;;;;;4981269;28;20034;-80
2023/12/28 07:06:35;;;;;;;8.68;2.50;;;15.00;99.90;;;;;;4970583;28;20093;-80
2023/12/28 07:09:02;;;;;;;12.75;2.92;;;14.10;99.90;;;;;;4949088;28;20470;-81
2023/12/28 07:11:29;;;;;;;9.40;2.85;;;;;;;;;;4973768;28;20099;-81
2023/12/28 07:13:54;;;;;;;12.90;3.15;;;14.50;99.90;;;;;;4956374;28;20081;-81
2023/12/28 07:16:20;;;;;;;8.57;2.47;;;14.50;99.90;;;;;;4954299;28;20081;-81
2023/12/28 07:18:45;;;;;;;9.55;2.50;;;13.60;99.90;;;;;;4970091;28;20035;-81
2023/12/28 07:21:11;;;;;;;10.82;2.58;;;14.30;99.90;;;;;;4982317;28;20038;-81
2023/12/28 07:23:38;;;;;;;9.90;2.85;;;14.30;99.90;;;;;;4970911;28;20114;-81
2023/12/28 07:26:04;;;;;;;11.20;2.85;;;13.60;99.90;;;;;;4969964;28;20524;-81
2023/12/28 07:28:30;;;;;;;7.65;2.47;;;14.20;99.90;;;;;;4972857;28;20039;-81
2023/12/28 07:30:56;;;;;;;12.98;3.15;;;14.20;99.90;;;;;;4970850;28;20636;-81
2023/12/28 07:33:22;;;;;;;16.13;3.33;;;14.30;99.90;;;;;;4975198;28;20053;-82
2023/12/28 07:35:48;;;;;;;13.73;3.05;;;14.40;99.90;;;;;;4970057;28;20039;-81
2023/12/28 07:38:13;;;;;;;13.25;3.97;;;14.20;99.90;;;;;;4961799;28;20030;-80
2023/12/28 07:40:39;;;;;;;15.23;4.30;;;14.50;99.90;;;;;;4970920;28;20038;-81
2023/12/28 07:43:05;;;;;;;16.98;3.13;;;14.40;99.90;;;;;;4975205;28;20062;-81
2023/12/28 07:45:31;;;;;;;18.52;4.68;;;14.50;99.90;;;;;;4971685;28;20513;-81
2023/12/28 07:47:59;;;;;;;16.98;4.47;;;13.90;99.90;;;;;;4970418;28;20238;-80
2023/12/28 07:50:24;;;;;;;35.38;5.95;;;14.40;99.90;;;;;;4973548;28;20410;-80
2023/12/28 07:52:50;;;;;;;27.85;6.47;;;14.50;99.90;;;;;;4972194;28;20042;-80
2023/12/28 07:55:16;;;;;;;28.95;6.70;;;14.50;99.90;;;;;;4969525;28;20042;-80
2023/12/28 07:57:42;;;;;;;24.63;6.28;;;14.30;99.90;;;;;;4975135;28;20049;-80
2023/12/28 08:00:09;;;;;;;28.00;7.38;;;14.20;99.90;;;;;;4973512;28;20054;-80
2023/12/28 08:02:34;;;;;;;32.88;6.90;;;14.00;99.90;;;;;;4968048;28;20048;-79
2023/12/28 08:05:00;;;;;;;22.50;5.95;;;14.30;99.90;;;;;;4973932;28;20069;-80
2023/12/28 08:07:25;;;;;;;28.23;6.45;;;13.50;99.90;;;;;;4953218;28;20043;-80
2023/12/28 08:09:51;;;;;;;27.63;6.97;;;14.50;99.90;;;;;;4955878;28;20449;-80
2023/12/28 08:12:17;;;;;;;25.90;7.25;;;13.80;99.90;;;;;;4966597;28;20106;-80
2023/12/28 08:14:43;;;;;;;33.67;6.22;;;14.20;99.90;;;;;;4972361;28;20045;-80
2023/12/28 08:17:09;;;;;;;29.13;8.30;;;14.40;99.90;;;;;;4962190;28;20509;-79
2023/12/28 08:19:35;;;;;;;25.20;6.30;;;14.00;99.90;;;;;;4956534;28;20043;-79
2023/12/28 08:22:01;;;;;;;27.15;7.05;;;14.00;99.90;;;;;;4956342;28;20039;-79
2023/12/28 08:24:26;;;;;;;23.42;6.05;;;14.20;99.90;;;;;;4977023;28;20039;-79
2023/12/28 08:26:53;;;;;;;26.23;7.65;;;14.30;99.90;;;;;;4978269;28;20038;-79
2023/12/28 08:29:19;;;;;;;27.15;6.47;;;14.10;99.90;;;;;;4973619;28;20030;-80
2023/12/28 08:31:44;;;;;;;30.55;6.65;;;14.10;99.90;;;;;;4977387;28;20034;-79
2023/12/28 08:34:10;;;;;;;19.92;5.72;;;14.20;99.90;;;;;;4989478;28;20066;-80
2023/12/28 08:36:35;;;;;;;22.95;6.35;;;13.70;99.90;;;;;;4984617;28;20051;-80
2023/12/28 08:39:01;;;;;;;21.40;5.57;;;13.50;99.90;;;;;;4986193;28;20037;-80
2023/12/28 08:41:27;;;;;;;18.92;5.50;;;14.30;99.90;;;;;;4983300;28;20098;-80
2023/12/28 08:43:54;;;;;;;25.38;7.45;;;13.20;99.90;;;;;;4964298;28;20049;-79
2023/12/28 08:46:21;;;;;;;22.35;6.82;;;13.70;99.90;;;;;;4977936;28;20069;-80
2023/12/28 08:48:47;;;;;;;28.17;6.72;;;14.20;99.90;;;;;;4977857;28;20034;-80
2023/12/28 08:51:14;;;;;;;21.83;6.78;;;13.70;99.90;;;;;;4965489;28;20050;-80
2023/12/28 08:53:40;;;;;;;26.70;6.53;;;13.80;99.90;;;;;;4983359;28;20115;-80
2023/12/28 08:56:26;;;;;;;20.13;6.43;;;14.00;99.90;;;;;;4984431;28;20049;-80
2023/12/28 08:58:54;;;;;;;23.05;5.95;;;13.40;99.90;;;;;;4962527;28;20047;-80
2023/12/28 09:01:25;;;;;;;23.70;5.82;;;13.70;99.90;;;;;;4983692;28;20039;-80
2023/12/28 09:03:52;;;;;;;25.48;5.95;;;14.00;99.90;;;;;;4985859;28;20086;-80
2023/12/28 09:06:19;;;;;;;30.45;7.75;;;14.10;99.90;;;;;;4983969;28;20062;-80
2023/12/28 09:08:47;;;;;;;30.15;7.45;;;13.10;99.90;;;;;;4980496;28;20050;-80
2023/12/28 09:11:13;;;;;;;21.10;6.55;;;13.40;99.90;;;;;;4970556;28;20081;-79
2023/12/28 09:13:41;;;;;;;25.08;6.15;;;13.40;99.90;;;;;;4984177;28;20050;-80
2023/12/28 09:16:12;;;;;;;27.88;6.55;;;13.20;99.90;;;;;;4965882;28;20102;-80
2023/12/28 09:18:39;;;;;;;22.63;5.85;;;13.20;99.90;;;;;;4980806;28;20041;-80
2023/12/28 09:21:06;;;;;;;21.58;5.50;;;13.50;99.90;;;;;;4965149;28;20045;-80
2023/12/28 09:23:32;;;;;;;23.60;6.30;;;13.90;99.90;;;;;;4975731;28;20043;-80
2023/12/28 09:25:59;;;;;;;25.17;6.75;;;13.70;99.90;;;;;;4967425;28;20039;-80
2023/12/28 09:28:25;;;;;;;26.85;6.68;;;13.60;99.90;;;;;;4983323;28;20046;-79
2023/12/28 09:30:50;;;;;;;21.42;6.65;;;13.00;99.90;;;;;;4982310;28;20077;-80
2023/12/28 09:33:16;;;;;;;25.65;7.28;;;13.80;99.90;;;;;;4963583;28;20038;-80
2023/12/28 09:35:42;;;;;;;24.83;6.25;;;14.00;99.90;;;;;;4961097;28;20418;-80
2023/12/28 09:38:08;;;;;;;21.77;5.63;;;13.20;99.90;;;;;;4961918;28;20035;-80
2023/12/28 09:40:36;;;;;;;17.65;5.60;;;13.80;99.90;;;;;;4994840;28;20463;-80
2023/12/28 09:43:25;;;;;;;23.85;6.15;;;13.40;99.90;;;;;;4978256;28;20470;-80
2023/12/28 09:45:51;;;;;;;25.83;5.82;;;13.20;99.90;;;;;;4975040;28;20469;-79
2023/12/28 09:48:18;;;;;;;21.25;5.88;;;13.40;99.90;;;;;;4953582;28;20411;-80
2023/12/28 09:50:54;;;;;;;23.48;5.72;;;14.00;99.90;;;;;;4975528;28;20043;-80
2023/12/28 09:53:23;;;;;;;23.55;6.38;;;13.20;99.90;;;;;;4976502;28;20042;-79
2023/12/28 09:55:51;;;;;;;23.02;6.13;;;13.60;99.90;;;;;;4961984;28;20098;-80
2023/12/28 09:58:19;;;;;;;23.17;6.85;;;13.70;99.90;;;;;;4978453;28;20045;-80
2023/12/28 10:00:45;;;;;;;25.63;6.57;;;13.80;99.90;;;;;;4989760;28;20034;-80
2023/12/28 10:03:13;;;;;;;25.25;5.25;;;13.70;99.90;;;;;;4959073;28;20474;-80
2023/12/28 10:05:43;;;;;;;21.25;4.60;;;13.30;99.90;;;;;;4959165;28;20042;-80
2023/12/28 10:08:13;;;;;;;18.00;5.68;;;14.30;99.90;;;;;;4974461;28;20043;-80
2023/12/28 10:10:39;;;;;;;21.42;5.20;;;13.60;99.90;;;;;;4974613;28;20142;-80
2023/12/28 10:13:07;;;;;;;24.42;5.95;;;13.80;99.90;;;;;;4974105;28;20070;-80
2023/12/28 10:15:33;;;;;;;22.70;5.72;;;14.10;99.90;;;;;;4974793;28;20062;-80
2023/12/28 10:17:59;;;;;;;24.48;5.03;;;14.20;99.90;;;;;;4974369;28;20101;-80
2023/12/28 10:20:28;;;;;;;17.35;5.07;;;13.60;99.90;;;;;;4976958;28;20081;-80
2023/12/28 10:22:54;;;;;;;22.70;5.43;;;13.70;99.90;;;;;;4977753;28;20135;-80
2023/12/28 10:25:20;;;;;;;23.80;5.22;;;13.20;99.90;;;;;;4992824;28;20542;-80
2023/12/28 10:27:49;;;;;;;21.08;6.05;;;13.20;99.90;;;;;;4977399;28;20077;-80
2023/12/28 10:30:15;;;;;;;21.08;4.68;;;13.80;99.90;;;;;;4979986;28;21440;-80
2023/12/28 10:32:41;;;;;;;25.55;5.78;;;13.30;99.90;;;;;;4961163;28;20035;-79
2023/12/28 10:35:07;;;;;;;20.85;5.50;;;13.10;99.90;;;;;;4958888;28;20053;-80
2023/12/28 10:37:34;;;;;;;16.20;4.45;;;14.00;99.90;;;;;;4974852;28;20038;-80
2023/12/28 10:40:03;;;;;;;21.40;4.50;;;13.50;99.90;;;;;;4973680;28;20031;-80
2023/12/28 10:42:32;;;;;;;20.65;6.05;;;13.60;99.90;;;;;;4977728;28;20046;-80
2023/12/28 10:45:05;;;;;;;26.05;5.35;;;13.50;99.90;;;;;;4973122;28;20046;-79
2023/12/28 10:47:38;;;;;;;20.77;4.90;;;12.90;99.90;;;;;;4976641;28;20564;-79
2023/12/28 10:50:05;;;;;;;19.40;4.50;;;13.80;99.90;;;;;;4973586;28;20043;-80
2023/12/28 10:52:35;;;;;;;19.30;5.55;;;13.50;99.90;;;;;;4957082;28;20041;-79
2023/12/28 10:55:34;;;;;;;19.10;4.80;;;13.60;99.90;;;;;;4973596;28;20046;-79
2023/12/28 10:58:11;;;;;;;19.15;5.25;;;;;;;;;;4955299;28;20105;-79
2023/12/28 11:00:47;;;;;;;18.20;4.93;;;14.00;99.90;;;;;;4959808;28;20042;-80
2023/12/28 11:03:23;;;;;;;21.75;5.03;;;13.80;99.90;;;;;;4977378;28;20624;-80
2023/12/28 11:05:49;;;;;;;19.52;5.65;;;13.70;99.90;;;;;;4974450;28;20039;-80
2023/12/28 11:08:15;;;;;;;16.67;5.05;;;13.80;99.90;;;;;;4971844;28;20046;-79
2023/12/28 11:10:42;;;;;;;22.95;5.78;;;13.80;99.90;;;;;;4975297;28;20046;-79
2023/12/28 11:13:09;;;;;;;19.58;4.75;;;13.70;99.90;;;;;;4972150;28;20047;-79
2023/12/28 11:15:36;;;;;;;21.02;5.57;;;13.40;99.90;;;;;;4977465;28;20042;-80
2023/12/28 11:18:02;;;;;;;18.85;5.80;;;13.80;99.90;;;;;;4976017;28;20061;-79
2023/12/28 11:20:29;;;;;;;19.23;5.30;;;13.60;99.90;;;;;;4962843;28;20074;-80
2023/12/28 11:22:56;;;;;;;19.48;5.78;;;13.10;99.90;;;;;;4983918;28;20413;-79
2023/12/28 11:25:22;;;;;;;23.17;6.47;;;13.40;99.90;;;;;;4964730;28;20042;-79
2023/12/28 11:27:48;;;;;;;17.77;4.38;;;13.40;99.90;;;;;;4979415;28;20048;-79
2023/12/28 11:30:14;;;;;;;24.67;5.38;;;13.00;99.90;;;;;;4964522;28;20039;-80
2023/12/28 11:32:43;;;;;;;27.02;6.80;;;13.90;99.90;;;;;;4979032;28;20035;-80
2023/12/28 11:35:15;;;;;;;27.27;5.90;;;13.40;99.90;;;;;;4964509;28;20046;-79
2023/12/28 11:37:48;;;;;;;19.60;5.55;;;13.80;99.90;;;;;;4978028;28;20062;-79
2023/12/28 11:40:18;;;;;;;21.95;5.30;;;13.30;99.90;;;;;;4961596;28;20050;-80
2023/12/28 11:42:52;;;;;;;17.90;5.57;;;13.60;99.90;;;;;;4980045;28;20110;-79
2023/12/28 11:45:19;;;;;;;21.50;4.80;;;13.40;99.90;;;;;;4977251;28;20507;-80
2023/12/28 11:47:45;;;;;;;24.83;5.65;;;14.10;99.90;;;;;;4976979;28;20510;-79
2023/12/28 11:50:12;;;;;;;17.13;4.85;;;12.70;99.90;;;;;;4961554;28;20050;-80
2023/12/28 11:52:38;;;;;;;17.65;4.90;;;13.10;99.90;;;;;;4994574;28;20051;-80
2023/12/28 11:55:04;;;;;;;25.90;7.22;;;13.80;99.90;;;;;;4979939;28;20051;-80
2023/12/28 11:57:30;;;;;;;22.52;5.32;;;13.70;99.90;;;;;;4974560;28;20057;-80
2023/12/28 12:00:01;;;;;;;20.80;5.35;;;13.90;99.90;;;;;;4978320;28;20050;-79
2023/12/28 12:02:26;;;;;;;23.05;6.00;;;13.30;99.90;;;;;;4978477;28;20367;-80
2023/12/28 12:05:01;;;;;;;17.90;4.80;;;13.60;99.90;;;;;;4961584;28;20105;-79
2023/12/28 12:07:27;;;;;;;22.73;5.95;;;13.90;99.90;;;;;;4959439;28;20069;-80
2023/12/28 12:09:59;;;;;;;20.08;5.60;;;13.60;99.90;;;;;;4979118;28;20517;-79
2023/12/28 12:12:25;;;;;;;19.70;5.70;;;13.40;99.90;;;;;;4976110;28;20050;-79
2023/12/28 12:14:51;;;;;;;17.55;5.25;;;13.10;99.90;;;;;;4975865;28;20035;-79
2023/12/28 12:17:18;;;;;;;20.88;5.25;;;14.10;99.90;;;;;;4959109;28;20064;-80
2023/12/28 12:19:45;;;;;;;19.30;5.18;;;13.90;99.90;;;;;;4973828;28;20049;-80
2023/12/28 12:22:12;;;;;;;25.08;6.35;;;13.30;99.90;;;;;;4975364;28;20038;-79
2023/12/28 12:24:39;;;;;;;28.30;5.68;;;13.20;99.90;;;;;;4975727;28;20046;-79
2023/12/28 12:27:05;;;;;;;22.02;6.05;;;13.80;99.90;;;;;;4958566;28;20375;-80
2023/12/28 12:29:30;;;;;;;24.65;6.30;;;13.50;99.90;;;;;;4976381;28;20057;-79
2023/12/28 12:31:57;;;;;;;25.13;5.63;;;13.80;99.90;;;;;;4959777;28;20070;-79
2023/12/28 12:34:22;;;;;;;23.20;5.20;;;13.40;99.90;;;;;;4974735;28;20035;-79
2023/12/28 12:36:52;;;;;;;20.42;5.63;;;13.90;99.90;;;;;;4960004;28;20043;-79
2023/12/28 12:39:17;;;;;;;23.67;6.13;;;13.60;99.90;;;;;;4960218;28;20035;-79
2023/12/28 12:41:46;;;;;;;23.35;5.85;;;13.00;99.90;;;;;;4974246;28;20403;-79